Time;durP1;ratioP1;P1;durP2;ratioP2;P2;SDS_P1;SDS_P2;PMS_P1;PMS_P2;Temp;Humidity;BMP_temperature;BMP_pressure;BME280_temperature;BME280_humidity;BME280_pressure;Samples;Min_cycle;Max_cycle;Signal;HPM_P1;HPM_P2
2022/11/08 00:01:35;;;;;;;6.63;2.15;;;13.10;99.90;;;;;;5053830;28;20045;-65
2022/11/08 00:04:05;;;;;;;12.80;2.33;;;13.10;99.90;;;;;;5053537;28;20053;-65
2022/11/08 00:14:45;;;;;;;9.63;2.17;;;13.10;99.90;;;;;;5053284;28;20165;-65
2022/11/08 00:17:13;;;;;;;7.82;2.50;;;13.10;99.90;;;;;;5053901;28;20116;-65
2022/11/08 00:19:39;;;;;;;7.07;2.92;;;13.10;99.90;;;;;;5053579;28;20036;-65
2022/11/08 00:22:04;;;;;;;6.40;1.98;;;13.10;99.90;;;;;;5053816;28;20397;-65
2022/11/08 00:24:30;;;;;;;13.20;2.97;;;13.10;99.90;;;;;;5053123;28;20037;-65
2022/11/08 00:26:55;;;;;;;16.50;2.35;;;13.10;99.90;;;;;;5052432;28;20048;-65
2022/11/08 00:29:21;;;;;;;6.28;2.17;;;13.10;99.90;;;;;;5053276;28;20049;-65
2022/11/08 00:31:46;;;;;;;7.63;1.95;;;13.00;99.90;;;;;;5053418;28;20041;-65
2022/11/08 00:34:12;;;;;;;7.75;2.10;;;13.00;99.90;;;;;;5053122;28;20055;-65
2022/11/08 00:36:37;;;;;;;6.93;2.30;;;13.00;99.90;;;;;;5053300;28;20037;-66
2022/11/08 00:39:03;;;;;;;17.45;2.47;;;12.90;99.90;;;;;;5053457;28;20108;-65
2022/11/08 00:41:28;;;;;;;10.55;2.38;;;12.90;99.90;;;;;;5050893;28;20465;-65
2022/11/08 00:43:54;;;;;;;10.50;1.85;;;12.90;99.90;;;;;;5052834;28;20124;-65
2022/11/08 00:46:19;;;;;;;11.05;2.25;;;12.90;99.90;;;;;;5053202;28;20051;-65
2022/11/08 00:48:45;;;;;;;9.05;2.30;;;12.80;99.90;;;;;;5052052;28;20039;-65
2022/11/08 00:51:11;;;;;;;12.23;2.72;;;12.80;99.90;;;;;;5053003;28;20183;-65
2022/11/08 00:53:38;;;;;;;6.35;2.38;;;12.80;99.90;;;;;;5053131;28;20091;-65
2022/11/08 00:56:06;;;;;;;10.38;2.60;;;12.80;99.90;;;;;;5052623;28;20037;-65
2022/11/08 00:58:32;;;;;;;8.88;2.28;;;12.80;99.90;;;;;;5035132;28;20072;-65
2022/11/08 01:00:58;;;;;;;6.07;2.25;;;12.70;99.90;;;;;;5053017;28;20075;-65
2022/11/08 01:03:24;;;;;;;10.48;2.47;;;12.70;99.90;;;;;;5051379;28;20075;-65
2022/11/08 01:05:52;;;;;;;13.00;2.60;;;12.70;99.90;;;;;;5052677;28;20032;-65
2022/11/08 01:08:19;;;;;;;6.35;2.25;;;12.60;99.90;;;;;;5052870;28;20045;-65
2022/11/08 01:10:47;;;;;;;6.57;2.60;;;12.60;99.90;;;;;;5052618;28;20113;-65
2022/11/08 01:13:13;;;;;;;10.95;2.47;;;12.60;99.90;;;;;;5052572;28;20056;-65
2022/11/08 01:15:41;;;;;;;7.13;2.20;;;12.60;99.90;;;;;;5052453;28;20040;-65
2022/11/08 01:18:08;;;;;;;7.85;2.58;;;12.60;99.90;;;;;;5052617;28;20116;-65
2022/11/08 01:20:39;;;;;;;7.82;2.38;;;12.50;99.90;;;;;;5051361;28;20428;-65
2022/11/08 01:23:05;;;;;;;11.73;3.20;;;12.50;99.90;;;;;;5052642;28;20034;-65
2022/11/08 01:25:34;;;;;;;6.85;2.15;;;12.50;99.90;;;;;;5051045;28;20052;-65
2022/11/08 01:27:59;;;;;;;8.10;2.60;;;12.40;99.90;;;;;;5052309;28;20091;-65
2022/11/08 01:30:25;;;;;;;11.15;2.60;;;12.50;99.90;;;;;;5052429;28;20511;-65
2022/11/08 01:32:50;;;;;;;5.80;2.80;;;12.40;99.90;;;;;;5052330;28;20045;-65
2022/11/08 01:35:16;;;;;;;9.70;3.05;;;12.40;99.90;;;;;;5052032;28;20433;-65
2022/11/08 01:37:41;;;;;;;6.90;2.70;;;12.40;99.90;;;;;;5052046;28;20417;-65
2022/11/08 01:40:08;;;;;;;9.13;2.33;;;12.40;99.90;;;;;;5052205;28;20099;-65
2022/11/08 01:42:33;;;;;;;15.30;3.15;;;12.40;99.90;;;;;;5051909;28;20037;-65
2022/11/08 01:45:01;;;;;;;6.45;2.13;;;12.30;99.90;;;;;;5051777;28;20043;-65
2022/11/08 01:47:27;;;;;;;7.10;1.98;;;12.30;99.90;;;;;;5052235;28;20048;-65
2022/11/08 01:50:01;;;;;;;6.88;2.22;;;12.30;99.90;;;;;;5051743;28;20513;-65
2022/11/08 01:52:32;;;;;;;9.05;3.05;;;12.30;99.90;;;;;;5031920;28;20245;-65
2022/11/08 01:55:13;;;;;;;10.63;3.33;;;12.30;99.90;;;;;;5030858;28;20053;-65
2022/11/08 01:57:44;;;;;;;10.07;2.47;;;12.30;99.90;;;;;;5032210;28;20037;-65
2022/11/08 02:00:11;;;;;;;9.40;2.10;;;12.30;99.90;;;;;;5031899;28;20042;-65
2022/11/08 02:02:39;;;;;;;10.27;2.50;;;12.30;99.90;;;;;;5031843;28;20035;-65
2022/11/08 02:05:23;;;;;;;10.15;2.70;;;12.30;99.90;;;;;;5031512;28;20038;-65
2022/11/08 02:08:08;;;;;;;8.20;2.25;;;12.30;99.90;;;;;;5031997;28;20374;-65
2022/11/08 02:10:36;;;;;;;7.43;2.80;;;12.30;99.90;;;;;;5031530;28;20123;-65
2022/11/08 02:13:04;;;;;;;13.23;2.97;;;12.30;99.90;;;;;;5031798;28;20116;-65
2022/11/08 02:15:29;;;;;;;8.00;3.55;;;12.30;99.90;;;;;;5031309;28;20037;-65
2022/11/08 02:17:55;;;;;;;3.10;2.13;;;12.30;99.90;;;;;;5031615;28;20041;-65
2022/11/08 02:20:21;;;;;;;6.47;2.60;;;12.30;99.90;;;;;;5029898;28;20091;-65
2022/11/08 02:22:55;;;;;;;8.43;2.92;;;12.30;99.90;;;;;;5030039;28;20099;-65
2022/11/08 02:25:20;;;;;;;5.15;2.38;;;12.20;99.90;;;;;;5030964;28;20049;-65
2022/11/08 02:27:46;;;;;;;9.48;2.58;;;12.20;99.90;;;;;;5031365;28;20052;-65
2022/11/08 02:30:11;;;;;;;8.30;2.63;;;12.20;99.90;;;;;;5029681;28;20101;-65
2022/11/08 02:32:38;;;;;;;11.65;2.47;;;12.10;99.90;;;;;;5030500;28;20053;-65
2022/11/08 02:35:08;;;;;;;9.00;2.35;;;12.20;99.90;;;;;;5029447;28;20080;-65
2022/11/08 02:37:34;;;;;;;5.43;2.50;;;12.20;99.90;;;;;;5031308;28;20107;-65
2022/11/08 02:40:00;;;;;;;9.40;2.58;;;12.10;99.90;;;;;;5031041;28;20508;-65
2022/11/08 02:42:25;;;;;;;7.88;2.72;;;12.10;99.90;;;;;;5030961;28;20041;-65
2022/11/08 02:44:51;;;;;;;10.77;2.58;;;12.10;99.90;;;;;;5030655;28;20041;-65
2022/11/08 02:47:16;;;;;;;6.93;2.35;;;12.10;99.90;;;;;;5031026;28;20037;-65
2022/11/08 02:49:42;;;;;;;10.50;3.15;;;12.10;99.90;;;;;;5031109;28;20037;-65
2022/11/08 02:52:08;;;;;;;11.25;2.30;;;12.00;99.90;;;;;;5031102;28;20172;-65
2022/11/08 02:54:33;;;;;;;6.72;2.38;;;12.00;99.90;;;;;;5030859;28;20068;-65
2022/11/08 02:56:59;;;;;;;10.02;2.78;;;12.00;99.90;;;;;;5030745;28;20534;-65
2022/11/08 02:59:24;;;;;;;7.55;2.33;;;12.00;99.90;;;;;;5030527;28;20069;-65
2022/11/08 03:01:50;;;;;;;9.60;2.47;;;11.90;99.90;;;;;;5030899;28;20394;-65
2022/11/08 03:04:15;;;;;;;8.88;2.42;;;11.90;99.90;;;;;;5030099;28;20034;-65
2022/11/08 03:06:41;;;;;;;15.18;2.92;;;11.90;99.90;;;;;;5029560;28;20091;-65
2022/11/08 03:09:06;;;;;;;7.30;1.90;;;11.90;99.90;;;;;;5030932;28;20041;-65
2022/11/08 03:11:32;;;;;;;12.57;2.33;;;11.90;99.90;;;;;;5029363;28;20581;-65
2022/11/08 03:13:57;;;;;;;6.45;2.67;;;11.90;99.90;;;;;;5030343;28;20102;-65
2022/11/08 03:16:23;;;;;;;5.78;2.50;;;11.90;99.90;;;;;;5030865;28;20118;-65
2022/11/08 03:18:49;;;;;;;6.25;2.80;;;11.90;99.90;;;;;;5030808;28;20029;-65
2022/11/08 03:21:14;;;;;;;6.18;2.50;;;11.90;99.90;;;;;;5030597;28;20478;-65
2022/11/08 03:23:40;;;;;;;11.63;2.70;;;11.80;99.90;;;;;;5030619;28;20037;-65
2022/11/08 03:26:05;;;;;;;7.63;2.30;;;11.80;99.90;;;;;;5030477;28;20613;-65
2022/11/08 03:28:31;;;;;;;4.50;1.98;;;11.80;99.90;;;;;;5030446;28;20041;-65
2022/11/08 03:30:57;;;;;;;10.18;3.38;;;11.80;99.90;;;;;;5030761;28;20659;-65
2022/11/08 03:33:22;;;;;;;6.32;2.08;;;11.80;99.90;;;;;;5030144;28;20124;-65
2022/11/08 03:35:48;;;;;;;5.43;2.28;;;11.80;99.90;;;;;;5029196;28;20516;-65
2022/11/08 03:38:14;;;;;;;4.50;2.40;;;11.80;99.90;;;;;;5028897;28;20037;-65
2022/11/08 03:40:40;;;;;;;7.10;2.60;;;11.80;99.90;;;;;;5029037;28;20063;-65
2022/11/08 03:43:05;;;;;;;6.88;2.45;;;11.80;99.90;;;;;;5030060;28;20056;-65
2022/11/08 03:45:31;;;;;;;6.05;2.08;;;11.80;99.90;;;;;;5030282;28;20041;-65
2022/11/08 03:47:57;;;;;;;13.20;2.90;;;11.80;99.90;;;;;;5012676;28;20053;-65
2022/11/08 03:50:22;;;;;;;10.93;2.90;;;11.80;99.90;;;;;;5030046;28;20045;-65
2022/11/08 03:52:50;;;;;;;7.57;2.38;;;11.80;99.90;;;;;;5030598;28;20045;-65
2022/11/08 03:55:17;;;;;;;10.30;3.00;;;11.80;99.90;;;;;;5029867;28;20037;-65
2022/11/08 03:57:45;;;;;;;5.45;2.22;;;11.70;99.90;;;;;;5030100;28;20067;-65
2022/11/08 04:00:12;;;;;;;5.47;2.20;;;11.70;99.90;;;;;;5030339;28;20048;-65
2022/11/08 04:02:39;;;;;;;6.38;2.60;;;11.80;99.90;;;;;;5030224;28;20038;-66
2022/11/08 04:05:07;;;;;;;6.22;2.45;;;11.70;99.90;;;;;;5029805;28;20045;-65
2022/11/08 04:07:33;;;;;;;2.13;2.00;;;11.80;99.90;;;;;;5030161;28;20052;-65
2022/11/08 04:09:58;;;;;;;6.25;2.42;;;11.80;99.90;;;;;;5030099;28;20414;-65
2022/11/08 04:15:15;;;;;;;7.20;2.03;;;11.70;99.90;;;;;;5029797;28;20525;-65
2022/11/08 04:23:12;;;;;;;5.43;2.17;;;11.80;99.90;;;;;;5033788;28;20049;-65
2022/11/08 04:25:38;;;;;;;7.82;3.90;;;11.80;99.90;;;;;;5033558;28;20068;-65
2022/11/08 04:28:04;;;;;;;8.55;1.80;;;11.80;99.90;;;;;;5033449;28;20045;-65
2022/11/08 04:30:30;;;;;;;8.75;2.10;;;11.80;99.90;;;;;;5033531;28;20042;-65
2022/11/08 04:32:55;;;;;;;6.10;2.28;;;11.70;99.90;;;;;;5033729;28;20137;-65
2022/11/08 04:35:21;;;;;;;4.95;2.30;;;11.70;99.90;;;;;;5033170;28;20516;-65
2022/11/08 04:37:46;;;;;;;6.85;2.35;;;11.70;99.90;;;;;;5033504;28;20045;-65
2022/11/08 04:40:12;;;;;;;2.95;1.98;;;11.70;99.90;;;;;;5033228;28;20041;-65
2022/11/08 04:42:42;;;;;;;7.57;2.22;;;11.70;99.90;;;;;;5033019;28;20045;-65
2022/11/08 04:45:07;;;;;;;10.55;2.63;;;11.70;99.90;;;;;;5033151;28;20045;-65
2022/11/08 04:47:33;;;;;;;6.90;2.55;;;11.70;99.90;;;;;;5033241;28;20060;-65
2022/11/08 04:49:58;;;;;;;3.40;2.17;;;11.70;99.90;;;;;;5031724;28;20045;-65
2022/11/08 04:52:24;;;;;;;9.90;3.17;;;11.70;99.90;;;;;;5033115;28;20398;-65
2022/11/08 04:54:49;;;;;;;10.45;2.20;;;11.70;99.90;;;;;;5032835;28;20125;-65
2022/11/08 04:57:15;;;;;;;6.82;2.40;;;11.70;99.90;;;;;;5032786;28;20486;-65
2022/11/08 04:59:40;;;;;;;6.78;2.40;;;11.70;99.90;;;;;;5032696;28;20033;-65
2022/11/08 05:02:06;;;;;;;6.10;2.53;;;11.70;99.90;;;;;;5031482;28;20041;-65
2022/11/08 05:04:31;;;;;;;4.10;1.85;;;11.70;99.90;;;;;;5032850;28;20517;-65
2022/11/08 05:06:57;;;;;;;6.80;2.25;;;11.70;99.90;;;;;;5032924;28;20045;-65
2022/11/08 05:09:22;;;;;;;8.85;1.98;;;11.70;99.90;;;;;;5032786;28;20048;-65
2022/11/08 05:11:48;;;;;;;4.25;1.80;;;11.70;99.90;;;;;;5032501;28;20041;-65
2022/11/08 05:14:14;;;;;;;5.53;2.05;;;11.70;99.90;;;;;;5032549;28;20037;-66
2022/11/08 05:16:39;;;;;;;3.60;2.25;;;11.70;99.90;;;;;;5032878;28;20603;-65
2022/11/08 05:19:05;;;;;;;8.73;2.28;;;11.60;99.90;;;;;;5032657;28;20034;-65
2022/11/08 05:24:16;;;;;;;6.18;2.40;;;11.60;99.90;;;;;;5032366;28;20045;-65
2022/11/08 05:26:44;;;;;;;6.88;2.35;;;11.60;99.90;;;;;;5032472;28;20037;-65
2022/11/08 05:29:11;;;;;;;6.38;1.98;;;11.50;99.90;;;;;;5032152;28;20037;-65
2022/11/08 05:31:37;;;;;;;8.35;2.05;;;11.60;99.90;;;;;;5032589;28;20179;-65
2022/11/08 05:34:03;;;;;;;5.22;2.13;;;11.60;99.90;;;;;;5030605;28;20717;-65
2022/11/08 05:36:28;;;;;;;3.85;2.10;;;11.60;99.90;;;;;;5032537;28;20038;-65
2022/11/08 05:38:55;;;;;;;4.03;2.25;;;11.60;99.90;;;;;;5032264;28;20034;-65
2022/11/08 05:41:22;;;;;;;9.75;2.63;;;11.50;99.90;;;;;;5032367;28;20041;-65
2022/11/08 05:43:50;;;;;;;3.22;1.70;;;11.50;99.90;;;;;;5031993;28;20045;-65
2022/11/08 05:46:17;;;;;;;8.27;2.53;;;11.60;99.90;;;;;;5032379;28;20049;-65
2022/11/08 05:48:43;;;;;;;6.05;1.80;;;11.60;99.90;;;;;;5031950;28;20052;-65
2022/11/08 05:51:10;;;;;;;3.90;1.83;;;11.50;99.90;;;;;;5031885;28;20041;-66
2022/11/08 05:53:36;;;;;;;6.32;2.03;;;11.50;99.90;;;;;;5032004;28;20041;-65
2022/11/08 05:56:03;;;;;;;10.27;2.70;;;11.60;99.90;;;;;;5031813;28;20049;-65
2022/11/08 05:58:29;;;;;;;6.85;2.88;;;11.50;99.90;;;;;;5032032;28;20038;-65
2022/11/08 06:01:03;;;;;;;8.05;2.17;;;11.50;99.90;;;;;;5031772;28;20042;-65
2022/11/08 06:03:29;;;;;;;10.23;2.25;;;11.50;99.90;;;;;;5031897;28;20037;-65
2022/11/08 06:05:55;;;;;;;9.30;2.35;;;11.50;99.90;;;;;;5030015;28;20556;-65
2022/11/08 06:08:21;;;;;;;6.97;2.45;;;11.50;99.90;;;;;;5031897;28;20045;-65
2022/11/08 06:10:46;;;;;;;7.47;2.22;;;11.50;99.90;;;;;;5031632;28;20044;-65
2022/11/08 06:13:12;;;;;;;5.78;2.20;;;11.50;99.90;;;;;;5030202;28;20055;-65
2022/11/08 06:15:37;;;;;;;6.75;2.20;;;11.60;99.90;;;;;;5031163;28;20575;-65
2022/11/08 06:18:03;;;;;;;6.78;2.28;;;11.50;99.90;;;;;;5031730;28;20030;-65
2022/11/08 06:20:29;;;;;;;5.82;2.10;;;11.50;99.90;;;;;;5031181;28;20033;-65
2022/11/08 06:22:55;;;;;;;8.70;2.50;;;11.50;99.90;;;;;;5031659;28;20394;-65
2022/11/08 06:25:21;;;;;;;6.72;1.92;;;11.50;99.90;;;;;;5030845;28;20402;-65
2022/11/08 06:27:46;;;;;;;9.27;2.42;;;11.50;99.90;;;;;;5028385;28;20441;-65
2022/11/08 06:30:13;;;;;;;4.55;1.60;;;11.50;99.90;;;;;;5027993;28;20044;-65
2022/11/08 06:32:38;;;;;;;6.35;2.30;;;11.50;99.90;;;;;;5028508;28;20072;-66
2022/11/08 06:35:04;;;;;;;5.07;2.03;;;11.50;99.90;;;;;;5028837;28;20143;-66
2022/11/08 06:37:30;;;;;;;8.55;2.00;;;11.60;99.90;;;;;;5028108;28;20045;-65
2022/11/08 06:39:55;;;;;;;5.30;1.95;;;11.60;99.90;;;;;;5028080;28;20033;-66
2022/11/08 06:42:21;;;;;;;4.05;1.90;;;11.60;99.90;;;;;;5029534;28;20466;-65
2022/11/08 06:44:46;;;;;;;8.73;2.10;;;11.60;99.90;;;;;;5030360;28;20103;-66
2022/11/08 06:47:13;;;;;;;6.75;2.55;;;11.60;99.90;;;;;;5030514;28;20044;-65
2022/11/08 06:49:39;;;;;;;5.15;2.25;;;11.60;99.90;;;;;;5030254;28;20076;-66
2022/11/08 06:52:04;;;;;;;5.90;2.30;;;11.60;99.90;;;;;;5031151;28;20076;-66
2022/11/08 06:54:30;;;;;;;6.20;2.20;;;11.60;99.90;;;;;;5030931;28;20117;-66
2022/11/08 06:56:59;;;;;;;7.97;2.00;;;11.60;99.90;;;;;;5031205;28;20033;-65
2022/11/08 06:59:26;;;;;;;6.00;2.53;;;11.60;99.90;;;;;;5030925;28;20037;-66
2022/11/08 07:01:51;;;;;;;10.80;2.10;;;11.50;99.90;;;;;;5031021;28;20437;-66
2022/11/08 07:04:17;;;;;;;6.13;2.33;;;11.50;99.90;;;;;;5030466;28;20041;-66
2022/11/08 07:06:42;;;;;;;12.80;2.90;;;11.50;99.90;;;;;;5030944;28;20033;-66
2022/11/08 07:09:08;;;;;;;7.60;2.33;;;11.40;99.90;;;;;;5030946;28;20092;-66
2022/11/08 07:11:34;;;;;;;4.55;2.25;;;11.50;99.90;;;;;;5030910;28;20037;-66
2022/11/08 07:13:59;;;;;;;6.65;2.30;;;11.50;99.90;;;;;;5030454;28;20042;-66
2022/11/08 07:16:25;;;;;;;8.20;2.28;;;11.50;99.90;;;;;;5030732;28;20046;-65
2022/11/08 07:18:50;;;;;;;4.47;2.45;;;11.50;99.90;;;;;;5030508;28;20045;-65
2022/11/08 07:21:16;;;;;;;7.20;1.80;;;11.50;99.90;;;;;;5044352;28;20045;-66
2022/11/08 07:23:42;;;;;;;5.22;2.28;;;11.50;99.90;;;;;;5050346;28;20044;-66
2022/11/08 07:26:09;;;;;;;6.93;2.10;;;11.60;99.90;;;;;;5050701;28;20471;-66
2022/11/08 07:28:34;;;;;;;8.45;2.40;;;11.60;99.90;;;;;;5050486;28;20045;-65
2022/11/08 07:31:03;;;;;;;4.13;2.00;;;11.60;99.90;;;;;;5050548;28;20489;-66
2022/11/08 07:33:29;;;;;;;4.25;1.92;;;11.60;99.90;;;;;;5049109;28;20040;-66
2022/11/08 07:35:55;;;;;;;4.93;1.73;;;11.60;99.90;;;;;;5050416;28;20048;-65
2022/11/08 07:38:21;;;;;;;4.47;1.98;;;11.70;99.90;;;;;;5050594;28;20056;-65
2022/11/08 07:40:47;;;;;;;4.28;2.33;;;11.60;99.90;;;;;;5050699;28;20083;-67
2022/11/08 07:43:12;;;;;;;4.07;1.75;;;11.60;99.90;;;;;;5050330;28;20505;-65
2022/11/08 07:45:39;;;;;;;6.72;2.95;;;11.60;99.90;;;;;;5050233;28;20516;-65
2022/11/08 07:48:07;;;;;;;5.55;2.00;;;11.60;99.90;;;;;;5050230;28;20047;-65
2022/11/08 07:50:32;;;;;;;10.38;2.08;;;11.70;99.90;;;;;;5051049;28;20033;-65
2022/11/08 07:52:58;;;;;;;8.07;2.30;;;11.60;99.90;;;;;;5054312;28;20488;-65
2022/11/08 07:55:25;;;;;;;11.23;2.40;;;11.60;99.90;;;;;;5053632;28;20494;-67
2022/11/08 07:57:51;;;;;;;2.67;1.73;;;11.70;99.90;;;;;;5054049;28;20037;-65
2022/11/08 08:00:17;;;;;;;7.68;2.20;;;11.70;99.90;;;;;;5053726;28;20677;-65
2022/11/08 08:02:42;;;;;;;3.75;1.73;;;11.70;99.90;;;;;;5054245;28;20060;-65
2022/11/08 08:05:09;;;;;;;6.10;1.98;;;11.70;99.90;;;;;;5051210;28;20040;-66
2022/11/08 08:07:36;;;;;;;5.90;1.65;;;11.70;99.90;;;;;;5052933;28;20072;-66
2022/11/08 08:10:01;;;;;;;6.13;1.80;;;11.70;99.90;;;;;;5052648;28;20456;-66
2022/11/08 08:12:27;;;;;;;7.97;1.70;;;11.70;99.90;;;;;;5052415;28;20073;-66
2022/11/08 08:14:52;;;;;;;5.03;1.85;;;11.80;99.90;;;;;;5053104;28;20045;-68
2022/11/08 08:17:18;;;;;;;4.22;2.15;;;11.90;99.90;;;;;;5052419;28;20453;-68
2022/11/08 08:19:43;;;;;;;3.00;1.60;;;11.90;99.90;;;;;;5051925;28;20063;-68
2022/11/08 08:22:09;;;;;;;5.00;1.90;;;12.00;99.90;;;;;;5052735;28;20063;-68
2022/11/08 08:24:35;;;;;;;2.67;1.70;;;12.10;99.90;;;;;;5053653;28;20481;-67
2022/11/08 08:27:00;;;;;;;4.07;1.92;;;12.10;99.90;;;;;;5053711;28;20052;-68
2022/11/08 08:29:26;;;;;;;5.00;2.40;;;12.20;99.90;;;;;;5053731;28;20040;-68
2022/11/08 08:31:51;;;;;;;2.97;2.08;;;12.30;99.90;;;;;;5053239;28;20098;-67
2022/11/08 08:34:17;;;;;;;4.05;1.60;;;12.30;99.90;;;;;;5053243;28;20520;-68
2022/11/08 08:36:43;;;;;;;5.32;1.65;;;12.30;99.90;;;;;;5053267;28;20041;-67
2022/11/08 08:39:09;;;;;;;4.15;2.10;;;12.40;99.90;;;;;;5052147;28;20103;-67
2022/11/08 08:41:34;;;;;;;6.32;1.98;;;12.40;99.90;;;;;;5052966;28;20049;-67
2022/11/08 08:44:00;;;;;;;7.95;1.85;;;12.40;99.90;;;;;;5053186;28;20072;-67
2022/11/08 08:46:26;;;;;;;3.00;1.70;;;12.40;99.90;;;;;;5052884;28;20041;-68
2022/11/08 08:48:52;;;;;;;4.22;1.40;;;12.50;99.90;;;;;;5053153;28;20041;-67
2022/11/08 08:51:18;;;;;;;5.85;1.95;;;12.50;99.90;;;;;;5053210;28;20051;-67
2022/11/08 08:53:43;;;;;;;3.40;1.60;;;12.60;99.90;;;;;;5053015;28;20041;-68
2022/11/08 08:56:09;;;;;;;9.13;1.90;;;12.60;99.90;;;;;;5053168;28;20045;-67
2022/11/08 08:58:35;;;;;;;4.40;1.60;;;12.60;99.90;;;;;;5051444;28;20037;-67
2022/11/08 09:01:07;;;;;;;3.28;1.92;;;12.60;99.90;;;;;;5052669;28;20098;-67
2022/11/08 09:03:33;;;;;;;;;;;12.70;99.90;;;;;;5052933;28;20041;-67
2022/11/08 09:06:00;;;;;;;4.47;1.67;;;12.70;99.90;;;;;;5052792;28;19920;-67
2022/11/08 09:08:26;;;;;;;7.47;2.00;;;12.80;99.90;;;;;;5051506;28;20047;-67
2022/11/08 09:10:56;;;;;;;5.40;1.67;;;12.80;99.90;;;;;;5053070;28;20044;-68
2022/11/08 09:13:24;;;;;;;10.25;1.70;;;12.90;99.90;;;;;;5052511;28;20063;-68
2022/11/08 09:15:50;;;;;;;3.08;1.40;;;13.00;99.90;;;;;;5052615;28;20041;-67
2022/11/08 09:18:16;;;;;;;5.65;1.77;;;13.00;99.90;;;;;;5052576;28;20048;-67
2022/11/08 09:20:46;;;;;;;4.63;1.98;;;13.00;99.90;;;;;;5052345;28;20044;-67
2022/11/08 09:23:13;;;;;;;3.13;1.73;;;13.10;99.90;;;;;;5052760;28;20397;-67
2022/11/08 09:25:38;;;;;;;27.52;3.38;;;13.10;99.90;;;;;;5050917;28;20052;-68
2022/11/08 09:28:04;;;;;;;4.95;1.67;;;13.20;99.90;;;;;;5052444;28;20048;-68
2022/11/08 09:30:30;;;;;;;221.88;18.40;;;13.10;99.90;;;;;;5052282;28;20144;-67
2022/11/08 09:32:55;;;;;;;56.38;8.35;;;13.20;99.90;;;;;;5052471;28;20118;-68
2022/11/08 09:35:21;;;;;;;5.22;2.90;;;13.30;99.90;;;;;;5051715;28;20043;-68
2022/11/08 09:37:47;;;;;;;4.25;1.70;;;13.40;99.90;;;;;;5052461;28;20175;-67
2022/11/08 09:40:19;;;;;;;4.60;1.60;;;13.40;99.90;;;;;;5051855;28;20084;-68
2022/11/08 09:43:02;;;;;;;2.70;1.70;;;13.40;99.90;;;;;;5050256;28;20048;-68
2022/11/08 09:45:45;;;;;;;3.40;2.00;;;13.40;99.90;;;;;;5050034;28;20056;-68
2022/11/08 09:48:35;;;;;;;7.38;2.00;;;13.50;99.90;;;;;;5048261;28;20037;-68
2022/11/08 09:51:12;;;;;;;4.65;1.92;;;13.50;99.90;;;;;;5048449;28;20037;-68
2022/11/08 09:53:48;;;;;;;2.17;1.40;;;13.50;99.90;;;;;;5050934;28;20596;-68
2022/11/08 09:56:30;;;;;;;2.60;1.63;;;13.40;99.90;;;;;;5049720;28;20115;-68
2022/11/08 09:59:00;;;;;;;4.40;1.67;;;13.50;99.90;;;;;;5046660;28;20116;-68
2022/11/08 10:01:29;;;;;;;8.75;1.88;;;13.50;99.90;;;;;;5039289;28;20299;-68
2022/11/08 10:03:58;;;;;;;5.57;1.65;;;13.50;99.90;;;;;;5050565;28;20040;-68
2022/11/08 10:06:29;;;;;;;2.03;1.52;;;13.50;99.90;;;;;;5049619;28;20037;-68
2022/11/08 10:09:24;;;;;;;4.32;1.52;;;13.60;99.90;;;;;;5051806;28;20045;-67
2022/11/08 10:12:08;;;;;;;3.00;1.35;;;13.70;99.90;;;;;;5051303;28;20041;-67
2022/11/08 10:14:52;;;;;;;3.97;1.70;;;13.80;99.90;;;;;;5048928;28;20115;-67
2022/11/08 10:17:36;;;;;;;6.03;2.10;;;13.80;99.90;;;;;;5050348;28;20442;-67
2022/11/08 10:20:10;;;;;;;4.32;1.67;;;13.90;99.90;;;;;;5050487;28;20044;-67
2022/11/08 10:22:55;;;;;;;4.32;2.63;;;13.90;99.90;;;;;;5048846;28;20033;-67
2022/11/08 10:26:03;;;;;;;3.22;1.63;;;14.00;99.90;;;;;;5048894;28;20512;-67
2022/11/08 10:28:37;;;;;;;6.22;2.00;;;14.00;99.90;;;;;;4983674;28;20247;-67
2022/11/08 10:31:03;;;;;;;3.15;1.90;;;14.00;99.90;;;;;;4983301;28;20452;-67
2022/11/08 10:33:37;;;;;;;4.30;1.85;;;14.00;99.90;;;;;;5023014;28;20045;-67
2022/11/08 10:36:12;;;;;;;3.25;1.40;;;14.00;99.90;;;;;;5050751;28;20076;-67
2022/11/08 10:39:08;;;;;;;7.95;1.85;;;14.00;99.90;;;;;;5048667;28;20114;-67
2022/11/08 10:41:47;;;;;;;5.82;1.70;;;14.10;99.90;;;;;;5046894;28;20062;-67
2022/11/08 10:44:14;;;;;;;6.00;1.48;;;14.10;99.90;;;;;;5046962;28;20083;-67
2022/11/08 10:46:50;;;;;;;3.40;1.75;;;14.10;99.90;;;;;;5048663;28;20052;-67
2022/11/08 10:49:28;;;;;;;4.65;2.15;;;14.10;99.90;;;;;;5049261;28;20393;-68
2022/11/08 10:51:56;;;;;;;5.00;1.88;;;14.10;99.90;;;;;;5046779;28;20103;-67
2022/11/08 10:54:43;;;;;;;3.80;2.10;;;14.00;99.90;;;;;;5048058;28;20041;-68
2022/11/08 10:57:11;;;;;;;5.28;1.88;;;14.10;99.90;;;;;;5050194;28;20041;-68
2022/11/08 10:59:37;;;;;;;3.25;1.58;;;14.00;99.90;;;;;;5050349;28;20424;-67
2022/11/08 11:02:21;;;;;;;2.13;1.50;;;14.10;99.90;;;;;;5050624;28;20052;-68
2022/11/08 11:04:47;;;;;;;2.63;1.60;;;14.10;99.90;;;;;;5049807;28;20045;-67
2022/11/08 11:07:29;;;;;;;3.47;1.50;;;14.10;99.90;;;;;;5049957;28;20059;-68
2022/11/08 11:09:55;;;;;;;2.35;1.70;;;14.10;99.90;;;;;;5048257;28;20029;-66
2022/11/08 11:12:20;;;;;;;4.50;1.65;;;14.10;99.90;;;;;;5048740;28;20048;-67
2022/11/08 11:14:55;;;;;;;4.10;1.90;;;14.00;99.90;;;;;;5049545;28;20044;-65
2022/11/08 11:17:27;;;;;;;2.33;1.50;;;14.00;99.90;;;;;;5049751;28;20110;-68
2022/11/08 11:19:53;;;;;;;;;;;14.10;99.90;;;;;;5051111;28;20051;-67
2022/11/08 11:22:37;;;;;;;2.70;1.77;;;14.00;99.90;;;;;;5050425;28;19916;-65
2022/11/08 11:25:14;;;;;;;4.75;1.95;;;14.10;99.90;;;;;;5050133;28;20099;-65
2022/11/08 11:27:40;;;;;;;4.03;1.75;;;14.20;99.90;;;;;;5054574;28;20400;-65
2022/11/08 11:30:28;;;;;;;2.15;1.67;;;14.10;99.90;;;;;;5054699;28;20040;-65
2022/11/08 11:32:58;;;;;;;2.55;1.65;;;14.20;99.90;;;;;;5053015;28;20099;-66
2022/11/08 11:35:40;;;;;;;4.40;1.90;;;14.30;99.90;;;;;;5053905;28;20041;-66
2022/11/08 11:38:15;;;;;;;3.42;1.67;;;14.30;99.90;;;;;;5054194;28;20036;-66
2022/11/08 11:40:46;;;;;;;3.92;1.70;;;14.30;99.90;;;;;;5052872;28;20041;-65
2022/11/08 11:43:19;;;;;;;6.95;2.13;;;14.40;99.90;;;;;;5054128;28;20111;-65
2022/11/08 11:46:03;;;;;;;5.95;2.35;;;14.40;99.90;;;;;;5054032;28;20071;-65
2022/11/08 11:48:32;;;;;;;3.92;1.80;;;14.40;99.90;;;;;;5053855;28;20049;-65
2022/11/08 11:50:58;;;;;;;4.68;2.10;;;14.40;99.90;;;;;;5054282;28;20374;-65
2022/11/08 11:53:26;;;;;;;6.00;1.98;;;14.40;99.90;;;;;;5054199;28;20091;-65
2022/11/08 11:56:07;;;;;;;2.80;1.80;;;14.40;99.90;;;;;;5053479;28;20041;-65
2022/11/08 11:58:55;;;;;;;6.88;2.20;;;14.50;99.90;;;;;;5053872;28;20584;-65
2022/11/08 12:01:48;;;;;;;6.22;2.05;;;14.50;99.90;;;;;;5052262;28;20057;-65
2022/11/08 12:04:40;;;;;;;5.07;1.83;;;14.50;99.90;;;;;;5053519;28;20068;-65
2022/11/08 12:07:26;;;;;;;2.92;1.80;;;14.40;99.90;;;;;;5053755;28;20037;-65
2022/11/08 12:10:25;;;;;;;2.55;1.50;;;14.40;99.90;;;;;;5053726;28;20037;-65
2022/11/08 12:13:14;;;;;;;4.05;1.52;;;14.40;99.90;;;;;;5052403;28;20041;-65
2022/11/08 12:15:48;;;;;;;3.97;1.58;;;14.50;99.90;;;;;;5052808;28;20045;-65
2022/11/08 12:18:37;;;;;;;2.80;1.38;;;14.50;99.90;;;;;;5053377;28;20040;-65
2022/11/08 12:21:13;;;;;;;4.82;3.15;;;14.50;99.90;;;;;;5033558;28;20120;-65
2022/11/08 12:24:20;;;;;;;4.07;1.77;;;14.50;99.90;;;;;;5033394;28;20037;-65
2022/11/08 12:27:07;;;;;;;6.82;2.20;;;14.50;99.90;;;;;;5045998;28;20044;-65
2022/11/08 12:30:02;;;;;;;5.05;1.75;;;14.50;99.90;;;;;;5051148;28;20090;-65
2022/11/08 12:32:52;;;;;;;4.95;1.83;;;14.50;99.90;;;;;;5050354;28;20033;-65
2022/11/08 12:36:05;;;;;;;3.72;1.65;;;14.50;99.90;;;;;;5051157;28;20718;-66
2022/11/08 12:38:41;;;;;;;3.58;1.63;;;14.50;99.90;;;;;;4998941;28;20411;-65
2022/11/08 12:41:20;;;;;;;3.70;1.90;;;14.50;99.90;;;;;;5047919;28;20045;-66
2022/11/08 12:44:23;;;;;;;3.35;1.95;;;14.50;99.90;;;;;;5052603;28;20120;-65
2022/11/08 12:47:10;;;;;;;3.75;1.85;;;14.40;99.90;;;;;;5053269;28;20116;-65
2022/11/08 12:49:48;;;;;;;5.68;2.00;;;14.40;99.90;;;;;;5053151;28;20037;-65
2022/11/08 12:52:39;;;;;;;3.00;1.73;;;14.30;99.90;;;;;;5053056;28;20489;-65
2022/11/08 12:55:12;;;;;;;5.03;1.45;;;14.40;99.90;;;;;;5052073;28;20654;-65
2022/11/08 12:57:39;;;;;;;4.68;1.63;;;14.40;99.90;;;;;;5053592;28;20037;-65
2022/11/08 13:00:16;;;;;;;2.72;1.80;;;14.40;99.90;;;;;;5052542;28;20672;-65
2022/11/08 13:02:43;;;;;;;3.95;1.67;;;14.50;99.90;;;;;;5053011;28;20033;-65
2022/11/08 13:05:24;;;;;;;2.42;1.70;;;14.50;99.90;;;;;;5050970;28;20064;-65
2022/11/08 13:07:59;;;;;;;3.63;1.50;;;14.60;99.90;;;;;;5052631;28;20052;-65
2022/11/08 13:10:47;;;;;;;2.53;1.70;;;14.60;99.90;;;;;;5052716;28;20045;-65
2022/11/08 13:13:34;;;;;;;5.28;1.80;;;14.70;99.90;;;;;;5052577;28;20123;-65
2022/11/08 13:16:13;;;;;;;1.98;1.45;;;14.70;99.90;;;;;;5050712;28;20048;-65
2022/11/08 13:18:52;;;;;;;5.45;1.55;;;14.70;99.90;;;;;;5052824;28;20043;-65